createdAt,value
2023-01-31T00:01:18.175Z,0.90
2023-01-31T00:03:45.779Z,1.23
2023-01-31T00:06:13.666Z,0.90
2023-01-31T00:08:40.074Z,0.88
2023-01-31T00:11:06.294Z,1.23
2023-01-31T00:13:32.750Z,1.20
2023-01-31T00:15:59.190Z,0.93
2023-01-31T00:18:25.479Z,0.80
2023-01-31T00:20:51.537Z,0.80
2023-01-31T00:23:17.593Z,0.95
2023-01-31T00:25:44.692Z,0.90
2023-01-31T00:28:10.843Z,1.13
2023-01-31T00:30:37.553Z,1.27
2023-01-31T00:33:03.741Z,0.82
2023-01-31T00:35:29.990Z,1.00
2023-01-31T00:37:56.121Z,1.00
2023-01-31T00:40:22.218Z,1.42
2023-01-31T00:42:48.377Z,1.38
2023-01-31T00:45:14.712Z,1.42
2023-01-31T00:47:40.945Z,0.95
2023-01-31T00:50:07.422Z,1.05
2023-01-31T00:52:33.484Z,1.30
2023-01-31T00:54:59.648Z,1.33
2023-01-31T00:57:27.592Z,1.20
2023-01-31T00:59:53.699Z,1.30
2023-01-31T01:02:19.864Z,1.15
2023-01-31T01:04:45.917Z,1.20
2023-01-31T01:07:12.132Z,1.38
2023-01-31T01:09:38.231Z,1.40
2023-01-31T01:12:04.619Z,1.67
2023-01-31T01:14:30.688Z,1.20
2023-01-31T01:16:58.449Z,1.30
2023-01-31T01:19:24.565Z,1.48
2023-01-31T01:21:50.619Z,1.50
2023-01-31T01:24:18.637Z,1.65
2023-01-31T01:26:45.471Z,1.52
2023-01-31T01:29:12.406Z,1.55
2023-01-31T01:31:39.483Z,1.50
2023-01-31T01:34:11.429Z,1.55
2023-01-31T01:36:37.560Z,1.83
2023-01-31T01:39:05.836Z,1.52
2023-01-31T01:41:35.521Z,1.50
2023-01-31T01:44:04.875Z,1.73
2023-01-31T01:46:39.914Z,1.60
2023-01-31T01:49:29.085Z,1.60
2023-01-31T01:51:59.632Z,1.83
2023-01-31T01:54:33.308Z,1.45
2023-01-31T01:57:02.791Z,1.75
2023-01-31T01:59:56.346Z,1.60
2023-01-31T02:02:22.577Z,1.52
2023-01-31T02:04:51.566Z,1.50
2023-01-31T02:07:17.923Z,1.52
2023-01-31T02:10:06.035Z,1.48
2023-01-31T02:12:33.778Z,1.58
2023-01-31T02:14:59.976Z,1.80
2023-01-31T02:17:26.730Z,1.80
2023-01-31T02:20:23.342Z,1.67
2023-01-31T02:23:13.593Z,1.40
2023-01-31T02:26:19.360Z,1.38
2023-01-31T02:29:15.998Z,1.20
2023-01-31T02:32:37.465Z,1.50
2023-01-31T02:35:14.718Z,1.48
2023-01-31T02:38:04.785Z,1.65
2023-01-31T02:40:55.590Z,1.65
2023-01-31T02:43:54.479Z,1.80
2023-01-31T02:46:28.328Z,1.58
2023-01-31T02:49:06.873Z,1.77
2023-01-31T02:51:40.695Z,1.70
2023-01-31T02:54:17.365Z,1.92
2023-01-31T02:56:45.715Z,1.50
2023-01-31T02:59:21.887Z,1.70
2023-01-31T03:01:57.639Z,1.60
2023-01-31T03:04:23.760Z,2.20
2023-01-31T03:06:59.606Z,1.60
2023-01-31T03:09:36.429Z,1.58
2023-01-31T03:12:40.494Z,1.42
2023-01-31T03:15:49.049Z,1.63
2023-01-31T03:18:23.571Z,1.65
2023-01-31T03:21:02.578Z,1.52
2023-01-31T03:23:32.815Z,1.98
2023-01-31T03:26:00.484Z,1.60
2023-01-31T03:28:30.685Z,1.30
2023-01-31T03:31:10.219Z,1.30
2023-01-31T03:33:40.167Z,1.35
2023-01-31T03:36:20.470Z,1.67
2023-01-31T03:38:54.304Z,1.70
2023-01-31T03:41:45.197Z,1.42
2023-01-31T03:44:32.968Z,1.80
2023-01-31T03:47:08.106Z,1.60
2023-01-31T03:49:36.531Z,1.40
2023-01-31T03:52:07.018Z,1.50
2023-01-31T03:54:40.410Z,1.63
2023-01-31T03:57:23.752Z,1.30
2023-01-31T03:59:54.670Z,1.63
2023-01-31T04:02:28.386Z,1.27
2023-01-31T04:05:06.136Z,1.60
2023-01-31T04:07:32.523Z,1.55
2023-01-31T04:09:58.894Z,1.60
2023-01-31T04:12:25.044Z,1.33
2023-01-31T04:14:51.218Z,1.77
2023-01-31T04:17:17.308Z,1.60
2023-01-31T04:19:43.692Z,1.30
2023-01-31T04:22:09.774Z,1.42
2023-01-31T04:24:35.979Z,1.50
2023-01-31T04:27:02.351Z,1.52
2023-01-31T04:29:28.412Z,1.80
2023-01-31T04:31:55.747Z,1.10
2023-01-31T04:34:21.982Z,0.93
2023-01-31T04:36:48.177Z,0.90
2023-01-31T04:39:15.358Z,1.10
2023-01-31T04:41:41.920Z,0.90
2023-01-31T04:44:08.119Z,1.20
2023-01-31T04:46:34.618Z,0.90
2023-01-31T04:49:00.756Z,0.90
2023-01-31T04:51:26.851Z,1.00
2023-01-31T04:53:52.916Z,1.35
2023-01-31T04:56:19.185Z,1.20
2023-01-31T04:58:45.348Z,1.00
2023-01-31T05:01:11.526Z,1.20
2023-01-31T05:03:37.800Z,1.08
2023-01-31T05:06:04.160Z,1.00
2023-01-31T05:08:30.671Z,1.00
2023-01-31T05:10:58.863Z,0.90
2023-01-31T05:13:25.228Z,0.80
2023-01-31T05:15:51.304Z,1.00
2023-01-31T05:18:17.548Z,0.90
2023-01-31T05:20:43.820Z,0.90
2023-01-31T05:23:10.644Z,0.60
2023-01-31T05:25:37.317Z,0.80
2023-01-31T05:28:04.609Z,0.70
2023-01-31T05:30:31.511Z,0.60
2023-01-31T05:32:57.850Z,0.55
2023-01-31T05:35:23.927Z,0.60
2023-01-31T05:37:52.165Z,0.80
2023-01-31T05:40:18.319Z,0.40
2023-01-31T05:42:44.372Z,0.43
2023-01-31T05:45:11.554Z,0.60
2023-01-31T05:47:37.681Z,0.57
2023-01-31T05:50:04.207Z,0.50
2023-01-31T05:52:30.255Z,0.60
2023-01-31T05:54:56.320Z,0.60
2023-01-31T05:57:22.363Z,0.47
2023-01-31T05:59:48.468Z,0.70
2023-01-31T06:02:14.663Z,0.40
2023-01-31T06:04:40.869Z,0.40
2023-01-31T06:07:06.963Z,0.50
2023-01-31T06:09:33.289Z,0.40
2023-01-31T06:11:59.862Z,0.60
2023-01-31T06:14:26.087Z,0.68
2023-01-31T06:16:52.195Z,1.55
2023-01-31T06:19:20.633Z,1.80
2023-01-31T06:21:46.717Z,1.30
2023-01-31T06:24:12.863Z,1.20
2023-01-31T06:26:39.000Z,1.50
2023-01-31T06:29:05.625Z,0.77
2023-01-31T06:31:31.995Z,1.40
2023-01-31T06:33:58.320Z,1.48
2023-01-31T06:36:24.595Z,1.77
2023-01-31T06:38:51.919Z,0.95
2023-01-31T06:41:21.239Z,1.00
2023-01-31T06:43:47.530Z,0.73
2023-01-31T06:46:13.691Z,0.75
2023-01-31T06:48:39.948Z,1.00
2023-01-31T06:51:06.062Z,1.00
2023-01-31T06:53:32.779Z,1.67
2023-01-31T06:56:00.384Z,1.65
2023-01-31T06:58:27.654Z,1.85
2023-01-31T07:00:53.865Z,2.20
2023-01-31T07:03:19.994Z,1.75
2023-01-31T07:05:46.437Z,2.53
2023-01-31T07:08:13.863Z,2.50
2023-01-31T07:10:40.469Z,2.67
2023-01-31T07:13:06.726Z,2.22
2023-01-31T07:15:32.866Z,1.90
2023-01-31T07:17:59.535Z,1.58
2023-01-31T07:20:26.286Z,1.95
2023-01-31T07:22:57.257Z,1.58
2023-01-31T07:25:24.038Z,1.20
2023-01-31T07:27:51.519Z,2.00
2023-01-31T07:30:18.308Z,1.98
2023-01-31T07:32:46.215Z,1.83
2023-01-31T07:35:17.351Z,1.77
2023-01-31T07:37:45.647Z,1.63
2023-01-31T07:40:15.561Z,1.50
2023-01-31T07:42:42.380Z,1.40
2023-01-31T07:45:22.745Z,0.93
2023-01-31T07:47:49.878Z,1.40
2023-01-31T07:50:16.304Z,1.55
2023-01-31T07:52:42.543Z,1.55
2023-01-31T07:55:09.086Z,1.25
2023-01-31T07:57:35.208Z,1.50
2023-01-31T08:00:01.423Z,1.10
2023-01-31T08:02:46.708Z,1.30
2023-01-31T08:05:13.185Z,1.08
2023-01-31T08:07:39.384Z,0.93
2023-01-31T08:10:05.853Z,1.10
2023-01-31T08:12:31.937Z,0.93
2023-01-31T08:14:58.060Z,0.95
2023-01-31T08:17:24.169Z,1.23
2023-01-31T08:19:50.388Z,1.00
2023-01-31T08:22:16.429Z,1.35
2023-01-31T08:24:42.491Z,1.10
2023-01-31T08:27:08.601Z,1.45
2023-01-31T08:29:35.497Z,1.10
2023-01-31T08:32:02.524Z,1.20
2023-01-31T08:34:29.239Z,1.10
2023-01-31T08:36:55.399Z,1.20
2023-01-31T08:39:21.504Z,1.33
2023-01-31T08:41:47.634Z,1.23
2023-01-31T08:44:13.774Z,1.55
2023-01-31T08:46:40.552Z,1.60
2023-01-31T08:49:07.003Z,1.38
2023-01-31T08:51:33.141Z,1.30
2023-01-31T08:53:59.267Z,1.45
2023-01-31T08:56:25.546Z,1.30
2023-01-31T08:59:07.539Z,1.40
2023-01-31T09:01:34.753Z,1.35
2023-01-31T09:04:01.020Z,1.35
2023-01-31T09:06:27.718Z,1.17
2023-01-31T09:08:57.845Z,1.20
2023-01-31T09:11:27.329Z,1.35
2023-01-31T09:13:53.390Z,1.50
2023-01-31T09:16:20.352Z,1.45
2023-01-31T09:18:46.948Z,1.10
2023-01-31T09:21:16.179Z,1.40
2023-01-31T09:23:43.032Z,0.88
2023-01-31T09:26:13.052Z,1.20
2023-01-31T09:28:42.040Z,1.63
2023-01-31T09:31:11.090Z,1.45
2023-01-31T09:33:37.281Z,1.58
2023-01-31T09:36:04.979Z,1.30
2023-01-31T09:38:35.437Z,0.98
2023-01-31T09:41:05.616Z,1.08
2023-01-31T09:43:39.612Z,1.00
2023-01-31T09:46:12.515Z,1.02
2023-01-31T09:48:43.071Z,1.20
2023-01-31T09:51:12.336Z,1.15
2023-01-31T09:53:40.637Z,1.08
2023-01-31T09:56:06.733Z,1.30
2023-01-31T09:58:38.578Z,1.25
2023-01-31T10:01:23.602Z,1.10
2023-01-31T10:04:05.497Z,1.45
2023-01-31T10:06:42.656Z,1.52
2023-01-31T10:09:29.382Z,1.25
2023-01-31T10:12:00.289Z,1.35
2023-01-31T10:14:36.648Z,1.20
2023-01-31T10:17:05.913Z,1.00
2023-01-31T10:19:50.443Z,1.35
2023-01-31T10:22:25.366Z,1.30
2023-01-31T10:25:02.725Z,1.30
2023-01-31T10:27:48.271Z,1.38
2023-01-31T10:30:21.131Z,1.42
2023-01-31T10:32:55.094Z,1.00
2023-01-31T10:35:28.011Z,1.05
2023-01-31T10:38:01.303Z,0.80
2023-01-31T10:40:39.460Z,0.80
2023-01-31T10:43:21.905Z,0.70
2023-01-31T10:45:48.133Z,1.10
2023-01-31T10:48:21.468Z,1.27
2023-01-31T10:51:18.754Z,1.35
2023-01-31T10:54:14.535Z,1.67
2023-01-31T10:56:46.562Z,1.30
2023-01-31T10:59:28.801Z,1.10
2023-01-31T11:01:55.079Z,1.00
2023-01-31T11:04:28.784Z,1.40
2023-01-31T11:06:56.972Z,1.40
2023-01-31T11:09:24.095Z,1.30
2023-01-31T11:11:55.621Z,1.75
2023-01-31T11:14:21.822Z,1.33
2023-01-31T11:16:49.553Z,1.30
2023-01-31T11:19:28.627Z,1.55
2023-01-31T11:21:55.665Z,1.45
2023-01-31T11:24:24.163Z,1.33
2023-01-31T11:27:02.297Z,1.52
2023-01-31T11:30:00.373Z,1.15
2023-01-31T11:32:32.296Z,1.70
2023-01-31T11:35:04.732Z,1.17
2023-01-31T11:37:34.538Z,1.50
2023-01-31T11:40:25.582Z,1.63
2023-01-31T11:42:53.424Z,1.70
2023-01-31T11:45:22.888Z,1.40
2023-01-31T11:47:51.941Z,1.10
2023-01-31T11:50:59.783Z,0.88
2023-01-31T11:53:43.357Z,1.10
2023-01-31T11:56:20.514Z,1.33
2023-01-31T11:58:52.138Z,1.50
2023-01-31T12:01:22.831Z,1.25
2023-01-31T12:04:02.716Z,1.05
2023-01-31T12:06:36.111Z,1.42
2023-01-31T12:09:17.363Z,1.60
2023-01-31T12:12:13.016Z,1.40
2023-01-31T12:14:41.587Z,1.23
2023-01-31T12:17:16.622Z,1.50
2023-01-31T12:20:01.242Z,1.20
2023-01-31T12:22:38.227Z,1.42
2023-01-31T12:25:34.886Z,1.50
2023-01-31T12:28:03.980Z,1.30
2023-01-31T12:31:00.364Z,1.30
2023-01-31T12:33:55.853Z,1.52
2023-01-31T12:36:36.652Z,1.48
2023-01-31T12:39:27.416Z,1.15
2023-01-31T12:42:12.937Z,1.15
2023-01-31T12:44:47.210Z,1.30
2023-01-31T12:47:51.326Z,1.35
2023-01-31T12:50:55.362Z,1.25
2023-01-31T12:53:42.879Z,1.38
2023-01-31T12:56:17.941Z,1.27
2023-01-31T12:59:13.800Z,1.50
2023-01-31T13:02:16.081Z,1.20
2023-01-31T13:05:06.994Z,1.17
2023-01-31T13:07:45.502Z,1.40
2023-01-31T13:10:29.343Z,1.52
2023-01-31T13:12:57.794Z,1.60
2023-01-31T13:15:48.099Z,1.33
2023-01-31T13:18:14.895Z,1.38
2023-01-31T13:20:46.092Z,1.65
2023-01-31T13:23:31.068Z,1.27
2023-01-31T13:26:11.352Z,1.50
2023-01-31T13:29:00.405Z,1.58
2023-01-31T13:31:58.281Z,1.48
2023-01-31T13:34:28.696Z,1.42
2023-01-31T13:37:13.687Z,1.20
2023-01-31T13:39:43.622Z,1.40
2023-01-31T13:42:14.464Z,1.40
2023-01-31T13:44:45.148Z,1.30
2023-01-31T13:47:29.993Z,1.20
2023-01-31T13:50:01.671Z,0.88
2023-01-31T13:52:40.645Z,1.15
2023-01-31T13:55:13.380Z,1.08
2023-01-31T13:57:47.967Z,0.93
2023-01-31T14:00:38.173Z,0.90
2023-01-31T14:03:07.799Z,1.00
2023-01-31T14:05:44.010Z,0.93
2023-01-31T14:08:46.816Z,1.00
2023-01-31T14:11:12.844Z,1.00
2023-01-31T14:13:44.876Z,1.10
2023-01-31T14:16:35.582Z,1.00
2023-01-31T14:19:02.808Z,0.85
2023-01-31T14:21:28.854Z,0.80
2023-01-31T14:24:05.637Z,1.15
2023-01-31T14:26:43.913Z,0.80
2023-01-31T14:29:19.313Z,0.93
2023-01-31T14:31:47.389Z,0.90
2023-01-31T14:34:17.624Z,0.73
2023-01-31T14:37:18.096Z,0.88
2023-01-31T14:40:08.683Z,0.63
2023-01-31T14:42:48.544Z,0.70
2023-01-31T14:45:23.106Z,0.80
2023-01-31T14:48:38.223Z,0.80
2023-01-31T14:51:20.116Z,0.75
2023-01-31T14:54:10.424Z,0.80
2023-01-31T14:57:13.806Z,0.85
2023-01-31T14:59:50.452Z,0.60
2023-01-31T15:02:30.977Z,0.80
2023-01-31T15:05:04.402Z,0.70
2023-01-31T15:07:30.798Z,0.80
2023-01-31T15:09:57.481Z,0.52
2023-01-31T15:13:01.032Z,0.60
2023-01-31T15:15:34.957Z,0.70
2023-01-31T15:18:18.620Z,0.88
2023-01-31T15:20:50.404Z,0.60
2023-01-31T15:23:21.484Z,1.05
2023-01-31T15:25:48.216Z,0.75
2023-01-31T15:28:20.539Z,0.45
2023-01-31T15:30:47.576Z,0.60
2023-01-31T15:33:34.962Z,0.60
2023-01-31T15:36:25.895Z,0.70
2023-01-31T15:38:59.914Z,0.60
2023-01-31T15:41:38.794Z,0.60
2023-01-31T15:44:16.510Z,0.55
2023-01-31T15:46:44.738Z,0.65
2023-01-31T15:49:38.043Z,0.63
2023-01-31T15:52:07.945Z,0.63
2023-01-31T15:54:34.648Z,0.68
2023-01-31T15:57:02.135Z,0.88
2023-01-31T15:59:31.440Z,0.45
2023-01-31T16:02:01.334Z,0.60
2023-01-31T16:04:28.366Z,0.98
2023-01-31T16:06:55.330Z,0.57
2023-01-31T16:09:29.106Z,0.60
2023-01-31T16:11:57.220Z,0.40
2023-01-31T16:14:24.738Z,0.40
2023-01-31T16:16:54.291Z,0.50
2023-01-31T16:19:30.280Z,0.40
2023-01-31T16:21:57.889Z,0.43
2023-01-31T16:24:25.026Z,0.30
2023-01-31T16:26:58.525Z,0.40
2023-01-31T16:29:34.447Z,0.43
2023-01-31T16:32:00.590Z,0.40
2023-01-31T16:34:30.135Z,0.47
2023-01-31T16:37:31.110Z,0.30
2023-01-31T16:40:10.002Z,0.40
2023-01-31T16:42:38.063Z,0.43
2023-01-31T16:45:27.443Z,0.40
2023-01-31T16:47:54.584Z,0.20
2023-01-31T16:50:32.826Z,0.30
2023-01-31T16:53:25.079Z,0.40
2023-01-31T16:56:12.687Z,0.40
2023-01-31T16:58:44.867Z,0.32
2023-01-31T17:01:13.497Z,0.47
2023-01-31T17:03:39.893Z,0.40
2023-01-31T17:06:06.971Z,0.38
2023-01-31T17:08:39.549Z,0.30
2023-01-31T17:11:09.059Z,0.50
2023-01-31T17:13:36.382Z,0.20
2023-01-31T17:16:11.757Z,0.38
2023-01-31T17:18:37.798Z,0.30
2023-01-31T17:21:04.279Z,0.20
2023-01-31T17:23:30.328Z,0.25
2023-01-31T17:25:56.405Z,0.30
2023-01-31T17:28:22.583Z,0.35
2023-01-31T17:30:48.726Z,0.20
2023-01-31T17:33:15.210Z,0.28
2023-01-31T17:35:46.065Z,0.20
2023-01-31T17:38:12.351Z,0.22
2023-01-31T17:40:40.174Z,0.20
2023-01-31T17:43:06.303Z,0.28
2023-01-31T17:45:32.588Z,0.40
2023-01-31T17:47:58.961Z,0.20
2023-01-31T17:50:27.013Z,0.30
2023-01-31T17:52:53.656Z,0.20
2023-01-31T17:55:22.710Z,0.20
2023-01-31T17:57:49.679Z,0.30
2023-01-31T18:00:17.896Z,0.20
2023-01-31T18:02:44.365Z,0.30
2023-01-31T18:05:12.422Z,0.30
2023-01-31T18:07:39.426Z,0.30
2023-01-31T18:10:07.215Z,0.20
2023-01-31T18:12:36.415Z,0.20
2023-01-31T18:15:03.198Z,0.30
2023-01-31T18:17:29.269Z,0.20
2023-01-31T18:19:55.391Z,0.10
2023-01-31T18:22:22.743Z,0.20
2023-01-31T18:24:48.827Z,0.20
2023-01-31T18:27:14.873Z,0.20
2023-01-31T18:29:41.253Z,0.20
2023-01-31T18:32:09.026Z,0.30
2023-01-31T18:34:36.460Z,0.22
2023-01-31T18:37:12.651Z,0.20
2023-01-31T18:39:38.809Z,0.25
2023-01-31T18:42:04.897Z,0.30
2023-01-31T18:44:31.787Z,0.30
2023-01-31T18:46:57.963Z,0.30
2023-01-31T18:49:24.227Z,0.22
2023-01-31T18:51:50.709Z,0.25
2023-01-31T18:54:16.886Z,0.20
2023-01-31T18:56:44.018Z,0.30
2023-01-31T18:59:10.147Z,0.20
2023-01-31T19:01:36.322Z,0.30
2023-01-31T19:04:02.691Z,0.30
2023-01-31T19:06:34.702Z,0.30
2023-01-31T19:09:01.110Z,0.30
2023-01-31T19:11:28.769Z,0.32
2023-01-31T19:13:55.507Z,0.20
2023-01-31T19:16:25.292Z,0.20
2023-01-31T19:18:51.739Z,0.22
2023-01-31T19:21:18.871Z,0.22
2023-01-31T19:23:45.754Z,0.30
2023-01-31T19:26:13.070Z,0.30
2023-01-31T19:28:39.995Z,0.30
2023-01-31T19:31:08.394Z,0.25
2023-01-31T19:33:35.321Z,0.20
2023-01-31T19:36:11.632Z,0.10
2023-01-31T19:38:37.905Z,0.38
2023-01-31T19:41:09.062Z,0.20
2023-01-31T19:43:35.145Z,0.47
2023-01-31T19:46:01.410Z,0.20
2023-01-31T19:48:27.668Z,0.38
2023-01-31T19:50:54.773Z,0.20
2023-01-31T19:53:20.854Z,0.30
2023-01-31T19:55:51.147Z,0.25
2023-01-31T19:58:17.402Z,0.30
2023-01-31T20:00:43.516Z,0.30
2023-01-31T20:03:09.602Z,0.40
2023-01-31T20:05:35.726Z,0.22
2023-01-31T20:08:01.787Z,0.35
2023-01-31T20:10:28.528Z,0.40
2023-01-31T20:12:54.756Z,0.40
2023-01-31T20:15:20.874Z,0.30
2023-01-31T20:17:46.899Z,0.30
2023-01-31T20:20:12.999Z,0.38
2023-01-31T20:22:40.029Z,0.30
2023-01-31T20:25:06.661Z,0.35
2023-01-31T20:27:35.786Z,0.20
2023-01-31T20:30:01.993Z,0.25
2023-01-31T20:32:28.149Z,0.30
2023-01-31T20:34:54.203Z,0.20
2023-01-31T20:37:20.238Z,0.30
2023-01-31T20:39:46.334Z,0.38
2023-01-31T20:42:12.442Z,0.40
2023-01-31T20:44:38.606Z,0.30
2023-01-31T20:47:05.207Z,0.35
2023-01-31T20:49:31.584Z,0.43
2023-01-31T20:51:57.720Z,0.20
2023-01-31T20:54:23.868Z,0.32
2023-01-31T20:56:51.308Z,0.30
2023-01-31T20:59:20.183Z,0.30
2023-01-31T21:01:46.333Z,0.20
2023-01-31T21:04:13.618Z,0.30
2023-01-31T21:06:39.931Z,0.38
2023-01-31T21:09:06.136Z,0.28
2023-01-31T21:11:32.259Z,0.30
2023-01-31T21:13:59.469Z,0.30
2023-01-31T21:16:25.638Z,0.40
2023-01-31T21:18:51.729Z,0.43
2023-01-31T21:21:22.736Z,0.20
2023-01-31T21:23:51.567Z,0.30
2023-01-31T21:26:18.477Z,0.30
2023-01-31T21:28:44.725Z,0.30
2023-01-31T21:31:17.267Z,0.30
2023-01-31T21:33:48.831Z,0.50
2023-01-31T21:36:17.416Z,0.40
2023-01-31T21:38:43.844Z,0.20
2023-01-31T21:41:29.291Z,0.50
2023-01-31T21:43:56.094Z,0.40
2023-01-31T21:46:23.057Z,0.30
2023-01-31T21:48:50.564Z,0.50
2023-01-31T21:51:18.722Z,0.40
2023-01-31T21:53:45.471Z,0.40
2023-01-31T21:56:14.401Z,0.40
2023-01-31T21:58:40.927Z,0.32
2023-01-31T22:01:19.321Z,0.30
2023-01-31T22:03:48.066Z,0.50
2023-01-31T22:06:17.011Z,0.40
2023-01-31T22:08:43.343Z,0.50
2023-01-31T22:11:12.035Z,0.40
2023-01-31T22:13:39.402Z,0.30
2023-01-31T22:16:08.333Z,0.40
2023-01-31T22:18:35.722Z,0.35
2023-01-31T22:21:07.524Z,0.45
2023-01-31T22:23:35.089Z,0.43
2023-01-31T22:26:06.528Z,0.50
2023-01-31T22:28:33.079Z,0.40
2023-01-31T22:30:59.993Z,0.40
2023-01-31T22:33:26.162Z,0.40
2023-01-31T22:35:53.260Z,0.35
2023-01-31T22:38:19.696Z,0.40
2023-01-31T22:40:46.327Z,0.32
2023-01-31T22:43:13.971Z,0.50
2023-01-31T22:45:47.720Z,0.40
2023-01-31T22:48:14.882Z,0.40
2023-01-31T22:50:41.771Z,0.50
2023-01-31T22:53:08.608Z,0.65
2023-01-31T22:55:41.595Z,0.30
2023-01-31T22:58:08.723Z,0.30
2023-01-31T23:00:36.598Z,0.47
2023-01-31T23:03:03.990Z,0.45
2023-01-31T23:05:31.527Z,0.60
2023-01-31T23:07:57.900Z,0.40
2023-01-31T23:10:25.443Z,0.52
2023-01-31T23:12:52.019Z,0.35
2023-01-31T23:15:18.864Z,0.50
2023-01-31T23:17:45.701Z,0.47
2023-01-31T23:20:14.743Z,0.50
2023-01-31T23:22:41.575Z,0.32
2023-01-31T23:25:10.155Z,0.40
2023-01-31T23:27:36.848Z,0.45
2023-01-31T23:30:04.687Z,0.40
2023-01-31T23:32:30.746Z,0.50
2023-01-31T23:34:56.809Z,0.50
2023-01-31T23:37:23.586Z,0.50
2023-01-31T23:39:49.844Z,0.57
2023-01-31T23:42:15.972Z,0.30
2023-01-31T23:44:42.419Z,0.38
2023-01-31T23:47:08.782Z,0.52
2023-01-31T23:49:34.848Z,0.40
2023-01-31T23:52:00.997Z,0.55
2023-01-31T23:54:27.108Z,0.60
2023-01-31T23:56:53.276Z,0.40
2023-01-31T23:59:19.858Z,0.40
